createdAt,value
2019-03-10T00:07:28.373Z,42.03
2019-03-10T00:09:38.022Z,25.03
2019-03-10T00:11:58.614Z,32.37
2019-03-10T00:14:05.132Z,42.97
2019-03-10T00:16:57.643Z,28.60
2019-03-10T00:19:04.028Z,36.03
2019-03-10T00:21:12.880Z,36.73
2019-03-10T00:23:24.763Z,30.40
2019-03-10T00:25:29.885Z,43.47
2019-03-10T00:27:34.673Z,32.40
2019-03-10T00:29:39.689Z,33.13
2019-03-10T00:31:44.396Z,43.73
2019-03-10T00:33:50.623Z,37.90
2019-03-10T00:35:55.455Z,35.20
2019-03-10T00:38:00.550Z,35.70
2019-03-10T00:40:42.326Z,36.33
2019-03-10T00:43:33.192Z,42.30
2019-03-10T00:46:13.725Z,32.70
2019-03-10T00:49:01.648Z,30.00
2019-03-10T00:51:46.625Z,40.53
2019-03-10T00:53:57.379Z,37.80
2019-03-10T00:56:02.196Z,36.50
2019-03-10T00:58:06.983Z,37.77
2019-03-10T01:00:17.336Z,39.13
2019-03-10T01:02:22.058Z,43.40
2019-03-10T01:04:27.340Z,31.87
2019-03-10T01:06:32.902Z,42.67
2019-03-10T01:08:38.688Z,42.50
2019-03-10T01:10:44.286Z,37.07
2019-03-10T01:12:49.397Z,24.43
2019-03-10T01:14:54.168Z,29.60
2019-03-10T01:16:59.946Z,37.07
2019-03-10T01:19:05.525Z,33.13
2019-03-10T01:21:10.825Z,44.20
2019-03-10T01:23:15.648Z,35.30
2019-03-10T01:25:20.366Z,35.33
2019-03-10T01:27:25.169Z,37.43
2019-03-10T01:29:30.131Z,44.07
2019-03-10T01:32:21.176Z,33.77
2019-03-10T01:34:57.465Z,37.33
2019-03-10T01:37:02.612Z,35.07
2019-03-10T01:39:09.308Z,43.20
2019-03-10T01:41:14.086Z,38.03
2019-03-10T01:43:19.185Z,43.37
2019-03-10T01:45:24.073Z,38.90
2019-03-10T01:47:28.874Z,35.00
2019-03-10T01:49:33.627Z,36.27
2019-03-10T01:51:38.498Z,43.10
2019-03-10T01:53:43.311Z,31.30
2019-03-10T01:55:48.175Z,32.80
2019-03-10T01:57:52.880Z,33.70
2019-03-10T01:59:57.554Z,41.70
2019-03-10T02:02:25.248Z,40.57
2019-03-10T02:04:31.071Z,47.23
2019-03-10T02:07:28.922Z,29.67
2019-03-10T02:09:54.442Z,33.90
2019-03-10T02:12:44.243Z,28.73
2019-03-10T02:14:49.046Z,39.20
2019-03-10T02:17:07.088Z,33.77
2019-03-10T02:19:11.901Z,36.47
2019-03-10T02:21:16.711Z,37.00
2019-03-10T02:23:21.805Z,32.50
2019-03-10T02:25:26.953Z,36.67
2019-03-10T02:27:32.043Z,38.80
2019-03-10T02:29:36.881Z,34.07
2019-03-10T02:31:41.735Z,33.83
2019-03-10T02:33:46.886Z,33.80
2019-03-10T02:35:51.633Z,31.33
2019-03-10T02:37:56.481Z,26.77
2019-03-10T02:40:01.301Z,30.13
2019-03-10T02:42:06.085Z,28.30
2019-03-10T02:44:10.926Z,36.90
2019-03-10T02:46:15.848Z,30.03
2019-03-10T02:48:21.082Z,29.30
2019-03-10T02:50:25.797Z,36.27
2019-03-10T02:52:30.524Z,31.73
2019-03-10T02:54:35.280Z,33.37
2019-03-10T02:56:39.999Z,28.37
2019-03-10T02:58:44.839Z,38.83
2019-03-10T03:00:49.597Z,34.37
2019-03-10T03:02:54.451Z,50.23
2019-03-10T03:04:59.719Z,34.20
2019-03-10T03:07:16.799Z,39.83
2019-03-10T03:09:22.211Z,41.83
2019-03-10T03:11:27.035Z,43.87
2019-03-10T03:13:31.798Z,39.77
2019-03-10T03:15:36.647Z,25.93
2019-03-10T03:17:41.513Z,37.73
2019-03-10T03:19:46.848Z,25.57
2019-03-10T03:21:51.702Z,24.37
2019-03-10T03:23:56.475Z,28.23
2019-03-10T03:26:01.287Z,30.17
2019-03-10T03:28:06.144Z,39.50
2019-03-10T03:30:12.744Z,34.50
2019-03-10T03:32:17.573Z,29.40
2019-03-10T03:34:22.831Z,31.43
2019-03-10T03:36:33.502Z,41.40
2019-03-10T03:38:54.322Z,48.33
2019-03-10T04:02:22.807Z,41.17
2019-03-10T04:05:01.262Z,42.50
2019-03-10T04:07:08.621Z,39.60
2019-03-10T04:09:20.231Z,49.70
2019-03-10T04:11:25.647Z,51.03
2019-03-10T04:13:31.056Z,38.73
2019-03-10T04:15:36.321Z,47.97
2019-03-10T04:17:43.132Z,36.83
2019-03-10T04:19:49.034Z,46.13
2019-03-10T04:21:58.628Z,46.57
2019-03-10T04:24:13.033Z,43.13
2019-03-10T04:26:20.897Z,43.63
2019-03-10T04:28:49.623Z,31.93
2019-03-10T04:30:55.713Z,36.20
2019-03-10T04:33:02.195Z,30.27
2019-03-10T04:35:07.505Z,30.47
2019-03-10T04:37:13.893Z,34.33
2019-03-10T04:39:18.996Z,25.50
2019-03-10T04:41:24.049Z,29.67
2019-03-10T04:43:31.939Z,26.60
2019-03-10T04:49:05.451Z,23.37
2019-03-10T04:57:30.276Z,32.27
2019-03-10T04:59:47.622Z,26.43
2019-03-10T05:02:30.161Z,25.10
2019-03-10T05:16:30.394Z,41.83
2019-03-10T05:18:54.418Z,36.13
2019-03-10T05:20:59.200Z,20.47
2019-03-10T05:23:28.960Z,27.87
2019-03-10T05:25:34.061Z,33.33
2019-03-10T05:27:38.861Z,40.33
2019-03-10T05:29:43.996Z,24.80
2019-03-10T05:31:48.761Z,30.77
2019-03-10T05:33:53.877Z,24.43
2019-03-10T05:35:59.604Z,28.63
2019-03-10T05:38:04.495Z,29.53
2019-03-10T05:40:09.440Z,31.43
2019-03-10T05:42:14.190Z,29.83
2019-03-10T05:44:19.011Z,35.17
2019-03-10T05:46:23.946Z,26.43
2019-03-10T05:48:29.243Z,21.03
2019-03-10T05:50:34.629Z,34.60
2019-03-10T05:52:39.410Z,33.27
2019-03-10T05:54:44.223Z,28.73
2019-03-10T05:56:49.085Z,23.97
2019-03-10T05:58:53.929Z,21.20
2019-03-10T06:00:59.137Z,27.30
2019-03-10T06:03:03.891Z,28.67
2019-03-10T06:05:09.083Z,22.97
2019-03-10T06:07:14.346Z,23.60
2019-03-10T06:09:19.107Z,19.97
2019-03-10T06:11:24.293Z,23.27
2019-03-10T06:13:29.265Z,19.60
2019-03-10T06:15:34.129Z,20.17
2019-03-10T06:17:38.914Z,23.20
2019-03-10T06:19:49.827Z,19.17
2019-03-10T06:21:54.797Z,17.83
2019-03-10T06:23:59.565Z,16.27
2019-03-10T06:26:04.501Z,20.20
2019-03-10T06:28:09.327Z,13.93
2019-03-10T06:30:14.074Z,15.80
2019-03-10T06:32:19.146Z,16.63
2019-03-10T06:34:23.950Z,21.37
2019-03-10T06:36:29.585Z,16.53
2019-03-10T06:38:55.755Z,15.17
2019-03-10T06:42:21.821Z,19.30
2019-03-10T06:47:18.120Z,10.27
2019-03-10T06:49:26.129Z,16.10
2019-03-10T06:55:32.249Z,19.03
2019-03-10T07:00:38.415Z,17.10
2019-03-10T07:02:59.189Z,17.87
2019-03-10T07:05:16.955Z,19.30
2019-03-10T07:07:42.346Z,14.90
2019-03-10T07:09:56.863Z,19.70
2019-03-10T07:12:06.055Z,14.57
2019-03-10T07:14:49.172Z,19.60
2019-03-10T07:17:29.044Z,24.07
2019-03-10T07:19:49.620Z,17.70
2019-03-10T07:24:45.751Z,16.60
2019-03-10T07:27:03.781Z,11.83
2019-03-10T07:29:34.609Z,9.50
2019-03-10T07:32:20.968Z,9.43
2019-03-10T07:35:59.979Z,8.27
2019-03-10T07:39:13.727Z,9.57
2019-03-10T07:41:25.785Z,10.40
2019-03-10T07:43:55.744Z,4.70
2019-03-10T07:46:19.088Z,5.47
2019-03-10T07:48:49.204Z,7.43
2019-03-10T07:51:12.971Z,6.13
2019-03-10T07:53:42.447Z,13.73
2019-03-10T07:56:07.066Z,9.10
2019-03-10T07:59:05.221Z,8.90
2019-03-10T08:01:21.813Z,8.47
2019-03-10T08:03:45.637Z,8.33
2019-03-10T08:06:09.341Z,4.57
2019-03-10T08:08:44.440Z,2.60
2019-03-10T08:11:11.037Z,4.90
2019-03-10T08:13:33.361Z,4.50
2019-03-10T08:15:55.353Z,9.83
2019-03-10T08:18:22.393Z,4.30
2019-03-10T08:20:34.984Z,3.13
2019-03-10T08:22:46.577Z,5.87
2019-03-10T08:25:16.372Z,4.33
2019-03-10T08:27:42.905Z,2.87
2019-03-10T08:30:08.638Z,5.47
2019-03-10T08:32:45.075Z,5.10
2019-03-10T08:34:58.179Z,7.70
2019-03-10T08:37:22.442Z,3.83
2019-03-10T08:40:01.278Z,4.47
2019-03-10T08:42:24.911Z,8.43
2019-03-10T08:44:58.796Z,9.30
2019-03-10T08:47:54.452Z,4.50
2019-03-10T08:50:23.695Z,6.97
2019-03-10T08:52:41.622Z,6.13
2019-03-10T08:55:10.770Z,7.70
2019-03-10T08:57:39.698Z,3.80
2019-03-10T09:00:15.570Z,4.83
2019-03-10T09:02:49.087Z,3.90
2019-03-10T09:05:11.801Z,7.50
2019-03-10T09:07:41.109Z,4.07
2019-03-10T09:10:17.079Z,8.57
2019-03-10T09:12:30.024Z,5.07
2019-03-10T09:14:41.059Z,4.50
2019-03-10T09:17:04.749Z,4.80
2019-03-10T09:19:31.702Z,6.30
2019-03-10T09:21:56.456Z,3.97
2019-03-10T09:24:15.309Z,3.50
2019-03-10T09:26:46.098Z,12.80
2019-03-10T09:29:08.413Z,10.33
2019-03-10T09:31:44.976Z,4.23
2019-03-10T09:34:20.901Z,92.80
2019-03-10T09:36:47.697Z,52.60
2019-03-10T09:39:10.031Z,32.33
2019-03-10T09:41:57.218Z,17.10
2019-03-10T09:44:36.104Z,13.70
2019-03-10T09:46:49.468Z,10.20
2019-03-10T09:49:05.162Z,8.27
2019-03-10T09:51:38.043Z,14.13
2019-03-10T09:54:01.796Z,4.50
2019-03-10T09:56:24.798Z,9.00
2019-03-10T09:58:36.233Z,8.90
2019-03-10T10:00:51.350Z,8.13
2019-03-10T10:03:12.951Z,9.53
2019-03-10T10:05:34.710Z,3.70
2019-03-10T10:08:13.359Z,7.20
2019-03-10T10:10:35.700Z,4.73
2019-03-10T10:12:47.872Z,8.17
2019-03-10T10:15:11.680Z,3.43
2019-03-10T10:17:26.571Z,7.17
2019-03-10T10:19:49.397Z,9.30
2019-03-10T10:22:25.421Z,10.30
2019-03-10T10:25:04.327Z,8.33
2019-03-10T10:27:26.821Z,9.67
2019-03-10T10:30:08.620Z,11.83
2019-03-10T10:32:18.556Z,15.80
2019-03-10T10:34:43.357Z,12.53
2019-03-10T10:37:19.602Z,12.63
2019-03-10T10:39:32.599Z,11.73
2019-03-10T10:42:05.278Z,12.93
2019-03-10T10:44:31.987Z,13.87
2019-03-10T10:46:41.675Z,13.10
2019-03-10T10:49:01.014Z,21.63
2019-03-10T10:51:36.650Z,19.43
2019-03-10T10:53:53.500Z,15.67
2019-03-10T10:56:17.261Z,15.47
2019-03-10T10:58:39.501Z,23.13
2019-03-10T11:00:53.207Z,15.93
2019-03-10T11:03:15.486Z,24.33
2019-03-10T11:05:29.900Z,15.80
2019-03-10T11:07:53.530Z,19.83
2019-03-10T11:10:07.276Z,17.70
2019-03-10T11:12:36.867Z,21.27
2019-03-10T11:15:00.483Z,22.07
2019-03-10T11:17:24.121Z,20.67
2019-03-10T11:19:54.168Z,19.50
2019-03-10T11:22:03.986Z,11.77
2019-03-10T11:24:22.029Z,24.13
2019-03-10T11:26:55.106Z,13.80
2019-03-10T11:29:17.587Z,19.07
2019-03-10T11:31:34.983Z,13.30
2019-03-10T11:34:07.799Z,17.70
2019-03-10T11:36:24.853Z,17.10
2019-03-10T11:38:51.896Z,22.40
2019-03-10T11:41:19.987Z,18.10
2019-03-10T11:43:33.112Z,14.13
2019-03-10T11:45:52.122Z,22.53
2019-03-10T11:48:10.805Z,24.40
2019-03-10T11:50:28.429Z,19.87
2019-03-10T11:52:43.940Z,25.20
2019-03-10T11:55:28.341Z,31.63
2019-03-10T11:57:53.549Z,18.83
2019-03-10T12:00:32.680Z,19.80
2019-03-10T12:03:03.478Z,33.60
2019-03-10T12:05:30.964Z,16.47
2019-03-10T12:07:58.757Z,23.37
2019-03-10T12:10:04.087Z,23.07
2019-03-10T12:12:08.956Z,11.60
2019-03-10T12:14:14.141Z,16.67
2019-03-10T12:16:21.453Z,24.53
2019-03-10T12:18:26.801Z,24.87
2019-03-10T12:20:31.823Z,19.90
2019-03-10T12:22:36.607Z,18.87
2019-03-10T12:24:42.162Z,21.23
2019-03-10T12:26:47.043Z,20.77
2019-03-10T12:28:51.956Z,12.93
2019-03-10T12:30:57.161Z,20.03
2019-03-10T12:33:01.991Z,10.90
2019-03-10T12:35:07.156Z,18.17
2019-03-10T12:37:11.955Z,18.03
2019-03-10T12:39:17.388Z,19.40
2019-03-10T12:41:22.629Z,12.93
2019-03-10T12:43:27.447Z,11.73
2019-03-10T12:45:32.970Z,13.40
2019-03-10T12:47:37.711Z,15.73
2019-03-10T12:49:42.936Z,14.23
2019-03-10T12:51:48.329Z,15.47
2019-03-10T12:53:53.128Z,16.53
2019-03-10T12:55:57.884Z,22.70
2019-03-10T12:58:02.780Z,18.93
2019-03-10T13:00:08.799Z,16.23
2019-03-10T13:02:14.159Z,18.80
2019-03-10T13:04:19.271Z,23.53
2019-03-10T13:06:26.775Z,17.63
2019-03-10T13:08:31.779Z,19.60
2019-03-10T13:10:36.545Z,25.57
2019-03-10T13:12:41.369Z,20.40
2019-03-10T13:14:46.499Z,14.90
2019-03-10T13:16:51.283Z,17.37
2019-03-10T13:18:56.508Z,24.87
2019-03-10T13:21:01.238Z,23.37
2019-03-10T13:23:06.055Z,13.87
2019-03-10T13:25:10.997Z,11.13
2019-03-10T13:27:16.181Z,23.33
2019-03-10T13:29:21.075Z,6.70
2019-03-10T13:31:25.930Z,9.10
2019-03-10T13:33:30.786Z,10.97
2019-03-10T13:35:38.971Z,7.80
2019-03-10T13:37:44.687Z,13.63
2019-03-10T13:39:49.650Z,5.23
2019-03-10T13:41:54.577Z,9.83
2019-03-10T13:43:59.706Z,10.03
2019-03-10T13:46:04.671Z,10.17
2019-03-10T13:48:09.854Z,11.97
2019-03-10T13:50:15.642Z,12.60
2019-03-10T13:52:20.717Z,17.40
2019-03-10T13:54:25.574Z,19.43
2019-03-10T13:56:30.421Z,6.57
2019-03-10T13:58:35.928Z,4.37
2019-03-10T14:00:40.714Z,31.53
2019-03-10T14:02:45.473Z,13.10
2019-03-10T14:04:50.286Z,14.77
2019-03-10T14:06:55.083Z,10.57
2019-03-10T14:09:01.411Z,8.83
2019-03-10T14:11:06.259Z,6.97
2019-03-10T14:13:11.041Z,8.10
2019-03-10T14:15:15.935Z,6.43
2019-03-10T14:17:21.456Z,5.00
2019-03-10T14:19:26.108Z,9.17
2019-03-10T14:21:32.314Z,5.97
2019-03-10T14:23:37.692Z,5.17
2019-03-10T14:25:42.479Z,2.43
2019-03-10T14:27:47.669Z,6.93
2019-03-10T14:29:54.797Z,5.80
2019-03-10T14:32:00.082Z,3.60
2019-03-10T14:34:04.883Z,5.87
2019-03-10T14:36:10.535Z,7.53
2019-03-10T14:38:15.287Z,8.87
2019-03-10T14:40:20.210Z,9.90
2019-03-10T14:42:25.025Z,5.00
2019-03-10T14:44:36.221Z,7.03
2019-03-10T14:46:41.529Z,7.00
2019-03-10T14:48:46.281Z,5.83
2019-03-10T14:50:52.450Z,8.80
2019-03-10T14:52:57.540Z,8.40
2019-03-10T14:55:12.000Z,5.10
2019-03-10T14:57:17.888Z,3.27
2019-03-10T14:59:22.773Z,7.00
2019-03-10T15:01:28.350Z,4.90
2019-03-10T15:03:34.177Z,6.80
2019-03-10T15:05:43.896Z,8.77
2019-03-10T15:07:49.908Z,5.97
2019-03-10T15:09:56.022Z,4.37
2019-03-10T15:12:21.403Z,5.53
2019-03-10T15:14:26.228Z,9.53
2019-03-10T15:16:30.943Z,6.60
2019-03-10T15:18:35.730Z,5.90
2019-03-10T15:20:40.659Z,8.33
2019-03-10T15:22:46.069Z,8.07
2019-03-10T15:24:51.008Z,5.87
2019-03-10T15:26:56.136Z,2.97
2019-03-10T15:29:00.851Z,8.43
2019-03-10T15:31:05.617Z,6.80
2019-03-10T15:33:10.466Z,6.07
2019-03-10T15:35:16.327Z,6.70
2019-03-10T15:37:21.177Z,6.93
2019-03-10T15:39:27.287Z,3.57
2019-03-10T15:41:32.238Z,2.07
2019-03-10T15:43:38.056Z,2.90
2019-03-10T15:45:42.818Z,1.53
2019-03-10T15:47:48.067Z,7.73
2019-03-10T15:49:52.762Z,3.27
2019-03-10T15:51:57.636Z,1.30
2019-03-10T15:54:02.409Z,2.50
2019-03-10T15:56:07.123Z,15.93
2019-03-10T15:58:12.067Z,1.60
2019-03-10T16:00:17.925Z,1.63
2019-03-10T16:02:23.077Z,1.90
2019-03-10T16:04:28.235Z,1.10
2019-03-10T16:06:32.979Z,1.90
2019-03-10T16:08:37.915Z,3.17
2019-03-10T16:10:44.875Z,0.93
2019-03-10T16:12:49.603Z,0.90
2019-03-10T16:14:54.816Z,1.37
2019-03-10T16:16:59.576Z,2.60
2019-03-10T16:19:04.434Z,1.40
2019-03-10T16:21:09.242Z,1.63
2019-03-10T16:23:14.012Z,2.13
2019-03-10T16:25:18.894Z,1.83
2019-03-10T16:27:23.763Z,2.30
2019-03-10T16:29:28.500Z,1.50
2019-03-10T16:31:33.582Z,2.60
2019-03-10T16:33:38.320Z,1.47
2019-03-10T16:35:43.287Z,1.50
2019-03-10T16:37:48.389Z,1.40
2019-03-10T16:39:53.138Z,1.20
2019-03-10T16:41:57.895Z,1.63
2019-03-10T16:44:02.861Z,4.40
2019-03-10T16:46:07.998Z,1.80
2019-03-10T16:48:14.255Z,1.93
2019-03-10T16:50:19.612Z,5.47
2019-03-10T16:52:24.361Z,7.20
2019-03-10T16:54:29.144Z,5.07
2019-03-10T16:56:33.941Z,4.53
2019-03-10T16:58:41.736Z,2.90
2019-03-10T17:00:46.786Z,2.20
2019-03-10T17:02:51.816Z,1.33
2019-03-10T17:04:57.040Z,1.63
2019-03-10T17:07:02.566Z,3.90
2019-03-10T17:09:18.704Z,3.00
2019-03-10T17:11:23.588Z,3.07
2019-03-10T17:13:28.649Z,5.00
2019-03-10T17:15:34.540Z,9.70
2019-03-10T17:17:40.218Z,3.83
2019-03-10T17:19:44.961Z,6.47
2019-03-10T17:21:50.333Z,1.90
2019-03-10T17:24:04.959Z,6.37
2019-03-10T17:26:09.857Z,5.20
2019-03-10T17:28:18.523Z,4.17
2019-03-10T17:30:25.851Z,3.60
2019-03-10T17:32:31.978Z,4.40
2019-03-10T17:34:37.175Z,7.43
2019-03-10T17:36:42.797Z,4.10
2019-03-10T17:38:45.579Z,4.33
2019-03-10T17:40:50.695Z,6.17
2019-03-10T17:42:56.648Z,3.53
2019-03-10T17:45:01.488Z,8.73
2019-03-10T17:47:06.706Z,4.93
2019-03-10T17:49:11.936Z,5.77
2019-03-10T17:51:17.949Z,8.00
2019-03-10T17:53:22.738Z,3.23
2019-03-10T17:55:27.886Z,9.67
2019-03-10T17:57:32.795Z,11.13
2019-03-10T17:59:37.598Z,2.20
2019-03-10T18:01:42.421Z,5.27
2019-03-10T18:03:50.417Z,2.47
2019-03-10T18:05:55.332Z,1.40
2019-03-10T18:08:00.100Z,3.60
2019-03-10T18:10:05.433Z,2.73
2019-03-10T18:12:10.557Z,1.73
2019-03-10T18:14:15.331Z,4.30
2019-03-10T18:16:26.449Z,5.23
2019-03-10T18:18:31.600Z,5.30
2019-03-10T18:20:36.496Z,7.67
2019-03-10T18:22:41.747Z,8.43
2019-03-10T18:24:47.160Z,3.10
2019-03-10T18:26:52.692Z,2.70
2019-03-10T18:28:57.523Z,4.13
2019-03-10T18:31:08.185Z,7.77
2019-03-10T18:33:18.174Z,4.50
2019-03-10T18:35:23.289Z,1.83
2019-03-10T18:37:33.000Z,1.30
2019-03-10T18:39:40.789Z,1.93
2019-03-10T18:41:46.657Z,3.60
2019-03-10T18:43:52.090Z,2.50
2019-03-10T18:46:01.771Z,8.50
2019-03-10T18:48:07.242Z,2.27
2019-03-10T18:50:37.363Z,5.03
2019-03-10T18:52:42.250Z,3.17
2019-03-10T18:54:47.846Z,10.23
2019-03-10T18:56:53.313Z,3.80
2019-03-10T19:03:23.266Z,4.00
2019-03-10T19:12:01.021Z,4.97
2019-03-10T19:15:17.016Z,6.40
2019-03-10T19:23:32.934Z,10.63
2019-03-10T19:25:37.930Z,4.73
2019-03-10T19:27:43.260Z,10.13
2019-03-10T19:29:51.693Z,3.50
2019-03-10T19:31:56.734Z,4.17
2019-03-10T19:34:01.762Z,2.80
2019-03-10T19:36:06.832Z,2.40
2019-03-10T19:38:18.077Z,5.70
2019-03-10T19:40:23.327Z,2.63
2019-03-10T19:42:28.489Z,8.00
2019-03-10T19:44:33.983Z,6.07
2019-03-10T19:46:39.090Z,3.10
2019-03-10T19:48:49.664Z,8.40
2019-03-10T19:50:54.601Z,3.20
2019-03-10T19:52:59.526Z,4.33
2019-03-10T19:55:07.667Z,8.33
2019-03-10T19:57:12.417Z,2.30
2019-03-10T19:59:17.258Z,4.93
2019-03-10T20:01:22.000Z,2.70
2019-03-10T20:03:26.839Z,3.47
2019-03-10T20:05:32.321Z,1.33
2019-03-10T20:07:37.160Z,8.00
2019-03-10T20:09:41.918Z,15.50
2019-03-10T20:11:46.734Z,9.27
2019-03-10T20:13:51.466Z,3.33
2019-03-10T20:16:04.884Z,7.53
2019-03-10T20:18:09.693Z,6.27
2019-03-10T20:20:15.701Z,4.23
2019-03-10T20:22:20.671Z,3.70
2019-03-10T20:24:31.412Z,12.07
2019-03-10T20:26:36.805Z,19.63
2019-03-10T20:28:42.251Z,4.07
2019-03-10T20:30:47.378Z,2.47
2019-03-10T20:32:52.178Z,2.10
2019-03-10T20:34:57.229Z,6.57
2019-03-10T20:37:02.096Z,7.73
2019-03-10T20:39:08.673Z,9.23
2019-03-10T20:41:13.416Z,10.97
2019-03-10T20:43:18.364Z,6.80
2019-03-10T20:45:24.541Z,4.70
2019-03-10T20:47:29.642Z,6.30
2019-03-10T20:49:34.462Z,10.63
2019-03-10T20:51:39.173Z,7.73
2019-03-10T20:53:43.888Z,8.83
2019-03-10T20:55:48.820Z,11.77
2019-03-10T20:57:54.024Z,4.67
2019-03-10T21:00:00.796Z,6.33
2019-03-10T21:02:05.692Z,6.23
2019-03-10T21:04:10.453Z,4.17
2019-03-10T21:06:15.210Z,3.90
2019-03-10T21:08:19.983Z,6.80
2019-03-10T21:10:24.865Z,4.60
2019-03-10T21:12:39.809Z,2.80
2019-03-10T21:14:35.999Z,9.70
2019-03-10T21:16:40.788Z,5.60
2019-03-10T21:18:45.491Z,3.83
2019-03-10T21:20:50.677Z,10.20
2019-03-10T21:22:55.881Z,6.30
2019-03-10T21:25:01.621Z,8.70
2019-03-10T21:27:06.351Z,14.07
2019-03-10T21:29:11.847Z,5.50
2019-03-10T21:31:16.745Z,4.83
2019-03-10T21:33:21.491Z,6.73
2019-03-10T21:35:26.245Z,6.20
2019-03-10T21:37:31.110Z,4.30
2019-03-10T21:39:35.925Z,3.80
2019-03-10T21:41:41.152Z,11.43
2019-03-10T21:43:45.922Z,5.00
2019-03-10T21:45:50.740Z,4.80
2019-03-10T21:47:55.830Z,9.87
2019-03-10T21:50:00.958Z,4.00
2019-03-10T21:52:05.804Z,9.30
2019-03-10T21:54:10.567Z,4.83
2019-03-10T21:56:15.368Z,7.60
2019-03-10T21:58:20.152Z,7.93
2019-03-10T22:00:24.863Z,6.83
2019-03-10T22:02:29.638Z,5.30
2019-03-10T22:04:34.371Z,9.87
2019-03-10T22:06:39.138Z,6.40
2019-03-10T22:08:50.997Z,7.53
2019-03-10T22:10:55.728Z,11.70
2019-03-10T22:13:00.464Z,5.90
2019-03-10T22:15:17.669Z,5.60
2019-03-10T22:17:22.406Z,8.10
2019-03-10T22:19:27.172Z,8.90
2019-03-10T22:21:31.932Z,11.87
2019-03-10T22:23:36.693Z,8.20
2019-03-10T22:25:42.286Z,6.00
2019-03-10T22:27:47.383Z,12.23
2019-03-10T22:29:52.115Z,5.53
2019-03-10T22:31:57.265Z,7.43
2019-03-10T22:34:01.991Z,8.10
2019-03-10T22:36:07.229Z,18.00
2019-03-10T22:38:12.348Z,10.03
2019-03-10T22:40:17.374Z,14.10
2019-03-10T22:42:22.126Z,6.33
2019-03-10T22:44:26.836Z,4.87
2019-03-10T22:46:31.601Z,10.13
2019-03-10T22:48:36.361Z,7.13
2019-03-10T22:50:41.060Z,8.37
2019-03-10T22:52:46.240Z,14.30
2019-03-10T22:54:50.987Z,12.93
2019-03-10T22:56:55.801Z,14.40
2019-03-10T22:59:00.567Z,6.20
2019-03-10T23:01:05.395Z,14.03
2019-03-10T23:03:10.753Z,2.63
2019-03-10T23:05:16.116Z,10.03
2019-03-10T23:07:21.221Z,10.73
2019-03-10T23:09:26.011Z,9.33
2019-03-10T23:11:34.024Z,9.27
2019-03-10T23:13:39.161Z,13.07
2019-03-10T23:15:56.828Z,8.57
2019-03-10T23:18:01.512Z,9.97
2019-03-10T23:20:07.843Z,10.00
2019-03-10T23:22:13.249Z,8.33
2019-03-10T23:24:17.966Z,8.60
2019-03-10T23:26:23.416Z,4.60
2019-03-10T23:28:28.558Z,7.33
2019-03-10T23:30:39.127Z,5.00
2019-03-10T23:32:46.096Z,7.97
2019-03-10T23:34:50.826Z,10.00
2019-03-10T23:36:55.567Z,8.30
2019-03-10T23:39:00.769Z,7.40
2019-03-10T23:41:06.185Z,9.33
2019-03-10T23:43:10.968Z,9.70
2019-03-10T23:45:15.838Z,7.33
2019-03-10T23:47:20.554Z,6.07
2019-03-10T23:49:25.350Z,8.37
2019-03-10T23:51:32.360Z,8.90
2019-03-10T23:53:37.122Z,5.27
2019-03-10T23:55:41.889Z,7.00
2019-03-10T23:57:46.711Z,8.80
2019-03-10T23:59:52.516Z,15.13
